createdAt,value
2023-05-21T00:01:48.448Z,14.70
2023-05-21T00:04:36.664Z,14.60
2023-05-21T00:07:25.497Z,14.50
2023-05-21T00:10:13.830Z,14.40
2023-05-21T00:13:03.341Z,14.30
2023-05-21T00:15:51.544Z,14.30
2023-05-21T00:18:40.318Z,14.20
2023-05-21T00:21:29.745Z,14.30
2023-05-21T00:24:17.868Z,14.30
2023-05-21T00:27:06.171Z,14.30
2023-05-21T00:29:55.631Z,14.30
2023-05-21T00:32:43.826Z,14.30
2023-05-21T00:35:31.949Z,14.20
2023-05-21T00:38:20.043Z,14.10
2023-05-21T00:41:08.137Z,14.00
2023-05-21T00:43:57.241Z,13.90
2023-05-21T00:46:48.904Z,13.90
2023-05-21T00:49:37.093Z,13.90
2023-05-21T00:52:26.984Z,14.00
2023-05-21T00:55:15.512Z,14.00
2023-05-21T00:58:04.501Z,14.00
2023-05-21T01:00:55.850Z,14.00
2023-05-21T01:03:45.508Z,14.00
2023-05-21T01:06:34.796Z,14.00
2023-05-21T01:09:23.141Z,14.10
2023-05-21T01:12:12.146Z,14.10
2023-05-21T01:15:01.045Z,14.10
2023-05-21T01:17:49.893Z,14.10
2023-05-21T01:20:42.928Z,14.00
2023-05-21T01:23:32.474Z,14.00
2023-05-21T01:26:20.585Z,14.00
2023-05-21T01:29:12.919Z,13.90
2023-05-21T01:32:03.975Z,13.90
2023-05-21T01:34:55.531Z,13.90
2023-05-21T01:37:46.216Z,13.90
2023-05-21T01:40:40.750Z,13.80
2023-05-21T01:43:30.528Z,13.80
2023-05-21T01:46:21.028Z,13.80
2023-05-21T01:49:09.799Z,13.80
2023-05-21T01:51:58.116Z,13.70
2023-05-21T01:54:46.215Z,13.60
2023-05-21T01:57:35.674Z,13.50
2023-05-21T02:00:24.596Z,13.40
2023-05-21T02:03:12.860Z,13.40
2023-05-21T02:06:01.122Z,13.40
2023-05-21T02:08:49.272Z,13.50
2023-05-21T02:11:37.414Z,13.50
2023-05-21T02:14:27.041Z,13.50
2023-05-21T02:17:15.173Z,13.50
2023-05-21T02:20:11.508Z,13.50
2023-05-21T02:22:59.667Z,13.40
2023-05-21T02:25:47.799Z,13.30
2023-05-21T02:28:36.212Z,13.20
2023-05-21T02:31:25.695Z,13.20
2023-05-21T02:34:13.860Z,13.30
2023-05-21T02:37:01.988Z,13.10
2023-05-21T02:39:50.070Z,13.20
2023-05-21T02:42:39.701Z,13.00
2023-05-21T02:45:29.848Z,13.00
2023-05-21T02:48:19.322Z,12.90
2023-05-21T02:51:07.438Z,12.90
2023-05-21T02:53:55.550Z,12.90
2023-05-21T02:56:43.666Z,12.90
2023-05-21T02:59:31.791Z,12.90
2023-05-21T03:02:19.996Z,13.00
2023-05-21T03:05:10.331Z,13.00
2023-05-21T03:07:58.492Z,13.00
2023-05-21T03:10:46.616Z,13.00
2023-05-21T03:13:34.769Z,13.00
2023-05-21T03:16:22.977Z,13.10
2023-05-21T03:19:12.395Z,13.10
2023-05-21T03:22:02.254Z,13.10
2023-05-21T03:24:50.343Z,13.10
2023-05-21T03:27:38.684Z,13.00
2023-05-21T03:30:26.800Z,13.00
2023-05-21T03:33:15.592Z,13.00
2023-05-21T03:36:03.712Z,13.10
2023-05-21T03:38:53.167Z,13.00
2023-05-21T03:41:41.296Z,13.00
2023-05-21T03:44:32.433Z,13.00
2023-05-21T03:47:20.636Z,13.10
2023-05-21T03:50:09.416Z,13.20
2023-05-21T03:52:57.524Z,13.20
2023-05-21T03:55:47.301Z,13.30
2023-05-21T03:58:35.720Z,13.30
2023-05-21T04:01:24.168Z,13.30
2023-05-21T04:04:12.358Z,13.40
2023-05-21T04:07:01.033Z,13.40
2023-05-21T04:09:49.242Z,13.50
2023-05-21T04:12:38.827Z,13.60
2023-05-21T04:15:27.629Z,13.60
2023-05-21T04:18:16.920Z,13.70
2023-05-21T04:21:05.247Z,13.80
2023-05-21T04:23:54.016Z,13.80
2023-05-21T04:26:42.414Z,13.80
2023-05-21T04:29:32.001Z,13.80
2023-05-21T04:32:20.890Z,13.90
2023-05-21T04:35:10.138Z,13.90
2023-05-21T04:37:58.194Z,14.00
2023-05-21T04:40:46.551Z,14.00
2023-05-21T04:43:36.868Z,14.10
2023-05-21T04:46:26.818Z,14.10
2023-05-21T04:49:15.374Z,14.20
2023-05-21T04:52:03.450Z,14.20
2023-05-21T04:54:51.875Z,14.40
2023-05-21T04:57:39.940Z,14.40
2023-05-21T05:00:28.050Z,14.50
2023-05-21T05:03:17.593Z,14.60
2023-05-21T05:06:05.929Z,14.60
2023-05-21T05:08:54.451Z,14.70
2023-05-21T05:11:42.509Z,14.80
2023-05-21T05:14:30.627Z,14.90
2023-05-21T05:17:18.753Z,15.00
2023-05-21T05:20:10.025Z,15.00
2023-05-21T05:22:58.168Z,15.10
2023-05-21T05:25:46.352Z,15.20
2023-05-21T05:28:34.453Z,15.30
2023-05-21T05:31:22.561Z,15.40
2023-05-21T05:34:10.808Z,15.40
2023-05-21T05:37:00.253Z,15.50
2023-05-21T05:39:48.386Z,15.60
2023-05-21T05:42:36.498Z,15.60
2023-05-21T05:45:26.597Z,15.70
2023-05-21T05:48:14.750Z,15.80
2023-05-21T05:51:02.858Z,15.90
2023-05-21T05:53:52.276Z,16.00
2023-05-21T05:56:40.483Z,16.00
2023-05-21T05:59:28.558Z,16.10
2023-05-21T06:02:16.672Z,16.20
2023-05-21T06:05:06.840Z,16.30
2023-05-21T06:07:54.943Z,16.40
2023-05-21T06:10:44.413Z,16.50
2023-05-21T06:13:32.826Z,16.60
2023-05-21T06:16:20.946Z,16.70
2023-05-21T06:19:09.123Z,16.80
2023-05-21T06:21:57.268Z,16.90
2023-05-21T06:24:45.439Z,17.10
2023-05-21T06:27:34.875Z,17.20
2023-05-21T06:30:23.010Z,17.30
2023-05-21T06:33:11.475Z,17.40
2023-05-21T06:35:59.725Z,17.50
2023-05-21T06:38:47.941Z,17.70
2023-05-21T06:41:36.264Z,17.80
2023-05-21T06:44:25.696Z,17.90
2023-05-21T06:47:13.805Z,18.10
2023-05-21T06:50:01.882Z,18.20
2023-05-21T06:52:50.174Z,18.40
2023-05-21T06:55:38.450Z,18.40
2023-05-21T06:58:31.185Z,18.50
2023-05-21T07:01:22.394Z,18.70
2023-05-21T07:04:10.679Z,18.70
2023-05-21T07:06:58.881Z,18.80
2023-05-21T07:09:46.981Z,18.90
2023-05-21T07:12:35.081Z,19.00
2023-05-21T07:15:23.150Z,19.10
2023-05-21T07:18:13.397Z,19.10
2023-05-21T07:21:01.658Z,19.20
2023-05-21T07:23:49.840Z,19.30
2023-05-21T07:26:37.951Z,19.40
2023-05-21T07:29:26.080Z,19.50
2023-05-21T07:32:14.142Z,19.60
2023-05-21T07:35:03.627Z,19.60
2023-05-21T07:37:52.206Z,19.70
2023-05-21T07:40:40.533Z,19.80
2023-05-21T07:43:28.746Z,19.90
2023-05-21T07:46:16.952Z,20.10
2023-05-21T07:49:05.049Z,20.30
2023-05-21T07:51:54.477Z,20.40
2023-05-21T07:54:42.607Z,20.60
2023-05-21T07:57:30.704Z,20.70
2023-05-21T08:00:19.162Z,20.80
2023-05-21T08:03:07.404Z,21.00
2023-05-21T08:05:55.701Z,21.20
2023-05-21T08:08:45.246Z,21.30
2023-05-21T08:11:33.375Z,21.40
2023-05-21T08:14:21.544Z,21.50
2023-05-21T08:17:10.132Z,21.70
2023-05-21T08:19:58.219Z,21.80
2023-05-21T08:22:46.346Z,21.90
2023-05-21T08:25:35.908Z,22.00
2023-05-21T08:28:24.293Z,22.10
2023-05-21T08:31:12.556Z,22.10
2023-05-21T08:34:00.820Z,22.20
2023-05-21T08:36:50.000Z,22.30
2023-05-21T08:39:38.163Z,22.50
2023-05-21T08:42:37.061Z,22.50
2023-05-21T08:45:25.613Z,22.70
2023-05-21T08:48:16.028Z,22.80
2023-05-21T08:51:04.251Z,22.90
2023-05-21T08:53:52.439Z,23.00
2023-05-21T08:56:45.705Z,23.20
2023-05-21T08:59:37.008Z,23.30
2023-05-21T09:02:25.979Z,23.50
2023-05-21T09:05:15.638Z,23.60
2023-05-21T09:08:05.616Z,23.70
2023-05-21T09:10:54.012Z,23.80
2023-05-21T09:13:42.823Z,23.90
2023-05-21T09:16:32.265Z,24.00
2023-05-21T09:19:21.432Z,24.10
2023-05-21T09:22:09.594Z,24.30
2023-05-21T09:24:57.721Z,24.40
2023-05-21T09:27:45.908Z,24.50
2023-05-21T09:30:36.010Z,24.70
2023-05-21T09:33:30.050Z,24.90
2023-05-21T09:36:20.075Z,25.10
2023-05-21T09:39:08.836Z,25.20
2023-05-21T09:41:57.698Z,25.30
2023-05-21T09:44:45.985Z,25.50
2023-05-21T09:47:34.125Z,25.60
2023-05-21T09:50:23.833Z,25.70
2023-05-21T09:53:13.262Z,25.70
2023-05-21T09:56:03.681Z,25.80
2023-05-21T09:58:55.656Z,25.90
2023-05-21T10:01:44.191Z,26.00
2023-05-21T10:04:32.686Z,26.20
2023-05-21T10:07:25.890Z,26.40
2023-05-21T10:10:14.890Z,26.60
2023-05-21T10:13:06.800Z,26.70
2023-05-21T10:15:58.520Z,26.70
2023-05-21T10:18:49.252Z,26.70
2023-05-21T10:21:37.613Z,26.80
2023-05-21T10:24:27.546Z,26.90
2023-05-21T10:27:15.696Z,27.00
2023-05-21T10:30:05.898Z,27.10
2023-05-21T10:32:56.705Z,27.10
2023-05-21T10:35:45.992Z,27.10
2023-05-21T10:38:34.921Z,27.10
2023-05-21T10:41:24.577Z,27.10
2023-05-21T10:44:20.981Z,27.20
2023-05-21T10:47:21.925Z,27.20
2023-05-21T10:50:24.937Z,27.20
2023-05-21T10:53:17.233Z,27.20
2023-05-21T10:56:10.376Z,27.30
2023-05-21T10:59:07.194Z,27.40
2023-05-21T11:01:56.957Z,27.40
2023-05-21T11:04:45.945Z,27.50
2023-05-21T11:07:54.135Z,27.50
2023-05-21T11:10:44.537Z,27.50
2023-05-21T11:13:48.734Z,27.40
2023-05-21T11:16:38.391Z,27.50
2023-05-21T11:19:37.088Z,27.70
2023-05-21T11:22:25.861Z,27.80
2023-05-21T11:25:15.514Z,27.90
2023-05-21T11:28:09.419Z,28.00
2023-05-21T11:31:13.528Z,28.20
2023-05-21T11:34:14.544Z,28.30
2023-05-21T11:37:17.794Z,28.30
2023-05-21T11:40:18.966Z,28.40
2023-05-21T11:43:07.109Z,28.50
2023-05-21T11:45:55.690Z,28.60
2023-05-21T11:48:45.508Z,28.60
2023-05-21T11:51:35.001Z,28.70
2023-05-21T11:54:23.792Z,28.70
2023-05-21T11:57:12.056Z,28.70
2023-05-21T12:00:01.474Z,28.90
2023-05-21T12:02:51.308Z,29.20
2023-05-21T12:05:45.202Z,29.50
2023-05-21T12:08:46.670Z,29.70
2023-05-21T12:11:34.857Z,30.00
2023-05-21T12:14:23.197Z,30.10
2023-05-21T12:17:13.534Z,30.30
2023-05-21T12:20:08.434Z,30.40
2023-05-21T12:22:57.925Z,30.50
2023-05-21T12:25:48.786Z,30.50
2023-05-21T12:28:37.480Z,30.50
2023-05-21T12:31:27.472Z,30.40
2023-05-21T12:34:18.679Z,30.20
2023-05-21T12:37:09.561Z,30.00
2023-05-21T12:39:59.336Z,30.00
2023-05-21T12:42:48.828Z,30.00
2023-05-21T12:45:39.382Z,29.80
2023-05-21T12:48:27.816Z,29.70
2023-05-21T12:51:16.206Z,29.50
2023-05-21T12:54:04.399Z,29.50
2023-05-21T12:56:52.629Z,29.60
2023-05-21T12:59:46.555Z,29.80
2023-05-21T13:02:35.554Z,29.80
2023-05-21T13:05:23.902Z,29.80
2023-05-21T13:08:14.184Z,29.80
2023-05-21T13:11:02.658Z,29.90
2023-05-21T13:13:50.772Z,30.10
2023-05-21T13:16:40.254Z,30.00
2023-05-21T13:19:28.538Z,30.00
2023-05-21T13:22:16.800Z,30.10
2023-05-21T13:25:05.257Z,30.10
2023-05-21T13:27:54.295Z,30.20
2023-05-21T13:30:42.618Z,30.50
2023-05-21T13:33:32.401Z,30.80
2023-05-21T13:36:20.570Z,31.00
2023-05-21T13:39:08.725Z,31.10
2023-05-21T13:41:56.822Z,31.20
2023-05-21T13:44:44.927Z,31.40
2023-05-21T13:47:33.277Z,31.50
2023-05-21T13:50:22.755Z,31.40
2023-05-21T13:53:10.893Z,31.30
2023-05-21T13:55:59.036Z,31.50
2023-05-21T13:58:47.189Z,31.50
2023-05-21T14:01:35.342Z,31.20
2023-05-21T14:04:23.539Z,31.10
2023-05-21T14:07:13.095Z,31.00
2023-05-21T14:10:01.633Z,30.90
2023-05-21T14:12:49.791Z,31.00
2023-05-21T14:15:38.632Z,31.10
2023-05-21T14:18:26.958Z,31.20
2023-05-21T14:21:15.042Z,31.30
2023-05-21T14:24:04.699Z,31.30
2023-05-21T14:26:52.842Z,31.40
2023-05-21T14:29:40.950Z,31.60
2023-05-21T14:32:29.112Z,31.80
2023-05-21T14:35:17.518Z,32.10
2023-05-21T14:38:05.607Z,32.30
2023-05-21T14:40:55.271Z,32.50
2023-05-21T14:43:43.385Z,32.60
2023-05-21T14:46:31.758Z,32.90
2023-05-21T14:49:19.904Z,33.00
2023-05-21T14:52:08.335Z,33.20
2023-05-21T14:54:56.489Z,33.20
2023-05-21T14:57:46.165Z,33.10
2023-05-21T15:00:34.697Z,33.10
2023-05-21T15:03:22.935Z,33.00
2023-05-21T15:06:11.119Z,33.00
2023-05-21T15:08:59.180Z,33.10
2023-05-21T15:11:52.313Z,33.10
2023-05-21T15:14:41.937Z,33.20
2023-05-21T15:17:30.220Z,33.30
2023-05-21T15:20:19.732Z,33.60
2023-05-21T15:23:16.614Z,33.80
2023-05-21T15:26:05.482Z,34.00
2023-05-21T15:28:53.600Z,34.10
2023-05-21T15:31:43.043Z,33.90
2023-05-21T15:34:31.239Z,33.90
2023-05-21T15:37:19.655Z,34.00
2023-05-21T15:40:08.798Z,34.10
2023-05-21T15:42:57.068Z,34.20
2023-05-21T15:45:45.236Z,34.40
2023-05-21T15:48:34.947Z,34.40
2023-05-21T15:51:23.651Z,34.30
2023-05-21T15:54:11.929Z,34.40
2023-05-21T15:57:00.109Z,34.80
2023-05-21T15:59:48.296Z,35.10
2023-05-21T16:02:36.485Z,35.10
2023-05-21T16:05:26.642Z,35.10
2023-05-21T16:08:15.204Z,34.60
2023-05-21T16:11:03.407Z,33.80
2023-05-21T16:13:51.470Z,33.20
2023-05-21T16:16:39.774Z,32.50
2023-05-21T16:19:28.140Z,31.90
2023-05-21T16:22:17.695Z,31.60
2023-05-21T16:25:06.338Z,31.20
2023-05-21T16:27:54.460Z,31.10
2023-05-21T16:30:42.588Z,30.80
2023-05-21T16:33:31.037Z,30.70
2023-05-21T16:36:19.153Z,30.60
2023-05-21T16:39:08.604Z,30.50
2023-05-21T16:41:59.627Z,30.60
2023-05-21T16:44:47.971Z,30.50
2023-05-21T16:47:36.232Z,30.50
2023-05-21T16:50:24.665Z,30.30
2023-05-21T16:53:12.813Z,30.20
2023-05-21T16:56:02.323Z,30.00
2023-05-21T16:58:50.533Z,30.00
2023-05-21T17:01:38.706Z,29.80
2023-05-21T17:04:26.830Z,29.60
2023-05-21T17:07:16.293Z,29.50
2023-05-21T17:10:04.466Z,29.20
2023-05-21T17:12:54.035Z,29.10
2023-05-21T17:15:42.282Z,28.80
2023-05-21T17:18:31.278Z,28.60
2023-05-21T17:21:19.570Z,28.50
2023-05-21T17:24:07.893Z,28.40
2023-05-21T17:26:56.018Z,28.30
2023-05-21T17:29:45.488Z,28.30
2023-05-21T17:32:33.594Z,28.50
2023-05-21T17:35:21.733Z,28.70
2023-05-21T17:38:09.843Z,28.90
2023-05-21T17:40:59.043Z,28.90
2023-05-21T17:43:47.225Z,28.80
2023-05-21T17:46:36.707Z,28.70
2023-05-21T17:49:25.259Z,28.50
2023-05-21T17:52:13.471Z,28.20
2023-05-21T17:55:01.914Z,28.10
2023-05-21T17:57:50.188Z,27.80
2023-05-21T18:00:38.373Z,27.70
2023-05-21T18:03:28.038Z,27.50
2023-05-21T18:06:16.674Z,27.40
2023-05-21T18:09:06.207Z,27.20
2023-05-21T18:11:54.359Z,27.20
2023-05-21T18:14:42.593Z,27.20
2023-05-21T18:17:30.706Z,27.10
2023-05-21T18:20:20.278Z,27.00
2023-05-21T18:23:08.413Z,26.90
2023-05-21T18:25:56.815Z,26.80
2023-05-21T18:28:44.924Z,26.60
2023-05-21T18:31:33.145Z,26.40
2023-05-21T18:34:21.891Z,26.30
2023-05-21T18:37:11.452Z,26.20
2023-05-21T18:39:59.799Z,26.10
2023-05-21T18:42:47.976Z,26.00
2023-05-21T18:45:36.093Z,25.90
2023-05-21T18:48:24.200Z,25.80
2023-05-21T18:51:12.409Z,25.80
2023-05-21T18:54:02.048Z,25.60
2023-05-21T18:56:50.143Z,25.50
2023-05-21T18:59:40.923Z,25.50
2023-05-21T19:02:29.753Z,25.40
2023-05-21T19:05:18.011Z,25.30
2023-05-21T19:08:06.453Z,25.20
2023-05-21T19:10:55.928Z,25.10
2023-05-21T19:13:44.036Z,25.00
2023-05-21T19:16:32.369Z,25.00
2023-05-21T19:19:20.522Z,24.80
2023-05-21T19:22:08.852Z,24.70
2023-05-21T19:24:56.938Z,24.70
2023-05-21T19:27:47.765Z,24.50
2023-05-21T19:30:36.483Z,24.50
2023-05-21T19:33:24.967Z,24.40
2023-05-21T19:36:13.238Z,24.30
2023-05-21T19:39:01.476Z,24.20
2023-05-21T19:41:49.790Z,24.10
2023-05-21T19:44:40.556Z,24.10
2023-05-21T19:47:28.850Z,24.00
2023-05-21T19:50:18.019Z,23.90
2023-05-21T19:53:06.232Z,23.80
2023-05-21T19:55:54.389Z,23.70
2023-05-21T19:58:46.969Z,23.60
2023-05-21T20:01:39.522Z,23.50
2023-05-21T20:04:28.198Z,23.50
2023-05-21T20:07:16.523Z,23.40
2023-05-21T20:10:04.810Z,23.30
2023-05-21T20:12:52.981Z,23.20
2023-05-21T20:15:41.094Z,23.10
2023-05-21T20:18:30.560Z,23.10
2023-05-21T20:21:18.744Z,23.00
2023-05-21T20:24:07.346Z,23.00
2023-05-21T20:26:55.911Z,22.90
2023-05-21T20:29:44.650Z,22.90
2023-05-21T20:32:32.796Z,22.80
2023-05-21T20:35:22.237Z,22.80
2023-05-21T20:38:10.368Z,22.70
2023-05-21T20:40:58.519Z,22.70
2023-05-21T20:43:46.786Z,22.60
2023-05-21T20:46:38.292Z,22.60
2023-05-21T20:49:28.160Z,22.60
2023-05-21T20:52:17.629Z,22.50
2023-05-21T20:55:06.237Z,22.50
2023-05-21T20:57:54.360Z,22.40
2023-05-21T21:00:45.249Z,22.30
2023-05-21T21:03:34.338Z,22.20
2023-05-21T21:06:22.634Z,22.20
2023-05-21T21:09:12.128Z,22.20
2023-05-21T21:12:06.086Z,22.10
2023-05-21T21:14:59.984Z,22.00
2023-05-21T21:17:48.118Z,21.90
2023-05-21T21:20:36.467Z,21.90
2023-05-21T21:23:25.036Z,21.90
2023-05-21T21:26:14.482Z,21.80
2023-05-21T21:29:02.598Z,21.80
2023-05-21T21:31:51.262Z,21.70
2023-05-21T21:34:39.364Z,21.60
2023-05-21T21:37:29.409Z,21.70
2023-05-21T21:40:17.593Z,21.60
2023-05-21T21:43:07.057Z,21.60
2023-05-21T21:45:55.203Z,21.50
2023-05-21T21:48:43.345Z,21.50
2023-05-21T21:51:31.643Z,21.40
2023-05-21T21:54:19.784Z,21.50
2023-05-21T21:57:07.925Z,21.40
2023-05-21T21:59:57.408Z,21.40
2023-05-21T22:02:46.897Z,21.40
2023-05-21T22:05:35.677Z,21.50
2023-05-21T22:08:25.322Z,21.40
2023-05-21T22:11:13.442Z,21.40
2023-05-21T22:14:02.507Z,21.40
2023-05-21T22:16:53.158Z,21.40
2023-05-21T22:19:41.926Z,21.40
2023-05-21T22:22:30.078Z,21.40
2023-05-21T22:25:18.246Z,21.30
2023-05-21T22:28:06.511Z,21.30
2023-05-21T22:30:54.777Z,21.30
2023-05-21T22:33:44.331Z,21.30
2023-05-21T22:36:32.431Z,21.30
2023-05-21T22:39:20.535Z,21.30
2023-05-21T22:42:08.955Z,21.20
2023-05-21T22:44:57.099Z,21.20
2023-05-21T22:47:45.271Z,21.20
2023-05-21T22:50:35.035Z,21.30
2023-05-21T22:53:23.615Z,21.20
2023-05-21T22:56:11.716Z,21.20
2023-05-21T22:58:59.856Z,21.10
2023-05-21T23:01:48.049Z,21.00
2023-05-21T23:04:43.931Z,21.00
2023-05-21T23:07:34.128Z,20.90
2023-05-21T23:10:22.250Z,20.80
2023-05-21T23:13:10.661Z,20.80
2023-05-21T23:15:59.493Z,20.80
2023-05-21T23:18:48.671Z,20.80
2023-05-21T23:21:36.928Z,20.70
2023-05-21T23:24:28.647Z,20.70
2023-05-21T23:27:16.788Z,20.70
2023-05-21T23:30:05.249Z,20.70
2023-05-21T23:32:53.363Z,20.60
2023-05-21T23:35:41.755Z,20.50
2023-05-21T23:38:29.871Z,20.50
2023-05-21T23:41:19.379Z,20.50
2023-05-21T23:44:07.489Z,20.40
2023-05-21T23:46:56.056Z,20.30
2023-05-21T23:49:44.157Z,20.30
2023-05-21T23:52:36.530Z,20.20
2023-05-21T23:55:24.651Z,20.20
2023-05-21T23:58:14.237Z,20.10
